sensor_id;sensor_type;location;lat;lon;timestamp;P1;durP1;ratioP1;P2;durP2;ratioP2
62268;SDS011;56517;51.634;5.566;2023-12-07T00:00:22;55.42;;;25.02;;
62268;SDS011;56517;51.634;5.566;2023-12-07T00:01:43;43.72;;;22.13;;
62268;SDS011;56517;51.634;5.566;2023-12-07T00:03:03;50.05;;;24.75;;
62268;SDS011;56517;51.634;5.566;2023-12-07T00:04:27;45.53;;;21.80;;
62268;SDS011;56517;51.634;5.566;2023-12-07T00:05:48;43.47;;;22.95;;
62268;SDS011;56517;51.634;5.566;2023-12-07T00:07:09;40.33;;;20.02;;
62268;SDS011;56517;51.634;5.566;2023-12-07T00:08:30;46.45;;;20.92;;
62268;SDS011;56517;51.634;5.566;2023-12-07T00:09:51;36.50;;;20.40;;
62268;SDS011;56517;51.634;5.566;2023-12-07T00:11:12;31.73;;;18.77;;
62268;SDS011;56517;51.634;5.566;2023-12-07T00:12:33;26.98;;;18.92;;
62268;SDS011;56517;51.634;5.566;2023-12-07T00:13:54;32.67;;;19.55;;
62268;SDS011;56517;51.634;5.566;2023-12-07T00:15:15;32.95;;;19.75;;
62268;SDS011;56517;51.634;5.566;2023-12-07T00:16:36;29.08;;;19.75;;
62268;SDS011;56517;51.634;5.566;2023-12-07T00:17:56;28.10;;;18.63;;
62268;SDS011;56517;51.634;5.566;2023-12-07T00:19:17;26.88;;;17.95;;
62268;SDS011;56517;51.634;5.566;2023-12-07T00:20:39;29.42;;;18.60;;
62268;SDS011;56517;51.634;5.566;2023-12-07T00:22:00;25.55;;;18.45;;
62268;SDS011;56517;51.634;5.566;2023-12-07T00:23:21;31.70;;;20.70;;
62268;SDS011;56517;51.634;5.566;2023-12-07T00:24:42;29.90;;;19.48;;
62268;SDS011;56517;51.634;5.566;2023-12-07T00:26:03;50.67;;;21.83;;
62268;SDS011;56517;51.634;5.566;2023-12-07T00:27:24;35.72;;;21.35;;
62268;SDS011;56517;51.634;5.566;2023-12-07T00:28:45;41.50;;;21.52;;
62268;SDS011;56517;51.634;5.566;2023-12-07T00:30:06;40.67;;;22.52;;
62268;SDS011;56517;51.634;5.566;2023-12-07T00:31:27;37.60;;;21.30;;
62268;SDS011;56517;51.634;5.566;2023-12-07T00:32:48;35.40;;;21.70;;
62268;SDS011;56517;51.634;5.566;2023-12-07T00:34:09;39.83;;;22.80;;
62268;SDS011;56517;51.634;5.566;2023-12-07T00:35:30;35.40;;;20.58;;
62268;SDS011;56517;51.634;5.566;2023-12-07T00:36:51;34.28;;;21.40;;
62268;SDS011;56517;51.634;5.566;2023-12-07T00:38:12;32.20;;;19.58;;
62268;SDS011;56517;51.634;5.566;2023-12-07T00:39:33;33.88;;;20.08;;
62268;SDS011;56517;51.634;5.566;2023-12-07T00:40:54;43.00;;;23.17;;
62268;SDS011;56517;51.634;5.566;2023-12-07T00:42:14;32.65;;;20.73;;
62268;SDS011;56517;51.634;5.566;2023-12-07T00:43:35;35.45;;;20.55;;
62268;SDS011;56517;51.634;5.566;2023-12-07T00:44:56;39.65;;;23.85;;
62268;SDS011;56517;51.634;5.566;2023-12-07T00:46:17;33.22;;;21.33;;
62268;SDS011;56517;51.634;5.566;2023-12-07T00:47:38;38.35;;;20.90;;
62268;SDS011;56517;51.634;5.566;2023-12-07T00:48:59;36.03;;;20.48;;
62268;SDS011;56517;51.634;5.566;2023-12-07T00:50:21;35.58;;;21.10;;
62268;SDS011;56517;51.634;5.566;2023-12-07T00:51:42;32.80;;;20.92;;
62268;SDS011;56517;51.634;5.566;2023-12-07T00:53:03;33.92;;;20.85;;
62268;SDS011;56517;51.634;5.566;2023-12-07T00:54:24;33.72;;;20.48;;
62268;SDS011;56517;51.634;5.566;2023-12-07T00:55:44;37.85;;;20.35;;
62268;SDS011;56517;51.634;5.566;2023-12-07T00:57:06;30.25;;;20.17;;
62268;SDS011;56517;51.634;5.566;2023-12-07T00:58:27;42.90;;;23.45;;
62268;SDS011;56517;51.634;5.566;2023-12-07T00:59:47;34.40;;;22.55;;
62268;SDS011;56517;51.634;5.566;2023-12-07T01:01:08;33.72;;;22.42;;
62268;SDS011;56517;51.634;5.566;2023-12-07T01:02:29;38.17;;;22.65;;
62268;SDS011;56517;51.634;5.566;2023-12-07T01:03:50;38.25;;;22.05;;
62268;SDS011;56517;51.634;5.566;2023-12-07T01:05:11;41.42;;;21.17;;
62268;SDS011;56517;51.634;5.566;2023-12-07T01:06:32;41.13;;;22.92;;
62268;SDS011;56517;51.634;5.566;2023-12-07T01:07:53;43.97;;;21.83;;
62268;SDS011;56517;51.634;5.566;2023-12-07T01:09:14;40.03;;;22.58;;
62268;SDS011;56517;51.634;5.566;2023-12-07T01:10:35;38.90;;;21.50;;
62268;SDS011;56517;51.634;5.566;2023-12-07T01:11:55;36.92;;;21.05;;
62268;SDS011;56517;51.634;5.566;2023-12-07T01:13:18;44.58;;;23.70;;
62268;SDS011;56517;51.634;5.566;2023-12-07T01:14:39;40.28;;;21.95;;
62268;SDS011;56517;51.634;5.566;2023-12-07T01:16:00;37.20;;;20.48;;
62268;SDS011;56517;51.634;5.566;2023-12-07T01:17:21;37.05;;;21.45;;
62268;SDS011;56517;51.634;5.566;2023-12-07T01:18:42;40.45;;;22.15;;
62268;SDS011;56517;51.634;5.566;2023-12-07T01:20:04;39.00;;;21.92;;
62268;SDS011;56517;51.634;5.566;2023-12-07T01:21:26;37.83;;;21.80;;
62268;SDS011;56517;51.634;5.566;2023-12-07T01:22:46;36.50;;;22.05;;
62268;SDS011;56517;51.634;5.566;2023-12-07T01:24:08;35.25;;;20.70;;
62268;SDS011;56517;51.634;5.566;2023-12-07T01:25:29;36.45;;;22.23;;
62268;SDS011;56517;51.634;5.566;2023-12-07T01:26:49;42.22;;;22.65;;
62268;SDS011;56517;51.634;5.566;2023-12-07T01:28:10;38.35;;;21.98;;
62268;SDS011;56517;51.634;5.566;2023-12-07T01:29:31;34.47;;;22.27;;
62268;SDS011;56517;51.634;5.566;2023-12-07T01:30:52;32.10;;;20.50;;
62268;SDS011;56517;51.634;5.566;2023-12-07T01:32:13;33.58;;;22.17;;
62268;SDS011;56517;51.634;5.566;2023-12-07T01:33:35;38.00;;;20.33;;
62268;SDS011;56517;51.634;5.566;2023-12-07T01:34:56;43.22;;;23.05;;
62268;SDS011;56517;51.634;5.566;2023-12-07T01:36:16;38.60;;;22.13;;
62268;SDS011;56517;51.634;5.566;2023-12-07T01:37:37;36.00;;;21.35;;
62268;SDS011;56517;51.634;5.566;2023-12-07T01:38:58;53.80;;;23.35;;
62268;SDS011;56517;51.634;5.566;2023-12-07T01:40:19;54.92;;;23.58;;
62268;SDS011;56517;51.634;5.566;2023-12-07T01:41:40;52.40;;;22.67;;
62268;SDS011;56517;51.634;5.566;2023-12-07T01:43:01;39.25;;;22.45;;
62268;SDS011;56517;51.634;5.566;2023-12-07T01:44:22;40.88;;;22.63;;
62268;SDS011;56517;51.634;5.566;2023-12-07T01:45:43;36.53;;;23.17;;
62268;SDS011;56517;51.634;5.566;2023-12-07T01:47:04;43.40;;;22.17;;
62268;SDS011;56517;51.634;5.566;2023-12-07T01:48:25;37.47;;;19.25;;
62268;SDS011;56517;51.634;5.566;2023-12-07T01:49:49;44.15;;;21.45;;
62268;SDS011;56517;51.634;5.566;2023-12-07T01:51:10;52.08;;;21.45;;
62268;SDS011;56517;51.634;5.566;2023-12-07T01:52:31;35.85;;;22.00;;
62268;SDS011;56517;51.634;5.566;2023-12-07T01:53:53;36.97;;;21.65;;
62268;SDS011;56517;51.634;5.566;2023-12-07T01:55:14;37.97;;;19.40;;
62268;SDS011;56517;51.634;5.566;2023-12-07T01:56:36;60.87;;;20.43;;
62268;SDS011;56517;51.634;5.566;2023-12-07T01:57:57;32.15;;;20.52;;
62268;SDS011;56517;51.634;5.566;2023-12-07T01:59:18;32.58;;;18.90;;
62268;SDS011;56517;51.634;5.566;2023-12-07T02:00:39;32.45;;;21.15;;
62268;SDS011;56517;51.634;5.566;2023-12-07T02:02:00;43.30;;;20.08;;
62268;SDS011;56517;51.634;5.566;2023-12-07T02:03:20;44.58;;;20.50;;
62268;SDS011;56517;51.634;5.566;2023-12-07T02:04:41;41.00;;;19.15;;
62268;SDS011;56517;51.634;5.566;2023-12-07T02:06:02;40.70;;;19.02;;
62268;SDS011;56517;51.634;5.566;2023-12-07T02:07:23;44.60;;;20.80;;
62268;SDS011;56517;51.634;5.566;2023-12-07T02:08:45;34.38;;;21.52;;
62268;SDS011;56517;51.634;5.566;2023-12-07T02:10:06;44.75;;;21.45;;
62268;SDS011;56517;51.634;5.566;2023-12-07T02:11:27;36.53;;;19.52;;
62268;SDS011;56517;51.634;5.566;2023-12-07T02:12:48;51.65;;;21.70;;
62268;SDS011;56517;51.634;5.566;2023-12-07T02:14:09;51.88;;;21.10;;
62268;SDS011;56517;51.634;5.566;2023-12-07T02:15:30;40.15;;;20.00;;
62268;SDS011;56517;51.634;5.566;2023-12-07T02:16:53;36.35;;;21.20;;
62268;SDS011;56517;51.634;5.566;2023-12-07T02:18:21;33.90;;;20.38;;
62268;SDS011;56517;51.634;5.566;2023-12-07T02:21:30;37.72;;;20.00;;
62268;SDS011;56517;51.634;5.566;2023-12-07T02:22:55;62.35;;;20.85;;
62268;SDS011;56517;51.634;5.566;2023-12-07T02:24:19;40.45;;;22.20;;
62268;SDS011;56517;51.634;5.566;2023-12-07T02:27:06;41.53;;;19.85;;
62268;SDS011;56517;51.634;5.566;2023-12-07T02:28:27;58.97;;;21.77;;
62268;SDS011;56517;51.634;5.566;2023-12-07T02:29:48;33.08;;;22.48;;
62268;SDS011;56517;51.634;5.566;2023-12-07T02:31:09;35.03;;;21.63;;
62268;SDS011;56517;51.634;5.566;2023-12-07T02:32:29;36.00;;;20.63;;
62268;SDS011;56517;51.634;5.566;2023-12-07T02:33:50;39.58;;;22.95;;
62268;SDS011;56517;51.634;5.566;2023-12-07T02:35:11;39.50;;;21.17;;
62268;SDS011;56517;51.634;5.566;2023-12-07T02:36:36;37.80;;;23.98;;
62268;SDS011;56517;51.634;5.566;2023-12-07T02:37:58;61.05;;;22.40;;
62268;SDS011;56517;51.634;5.566;2023-12-07T02:39:20;44.70;;;23.08;;
62268;SDS011;56517;51.634;5.566;2023-12-07T02:40:41;44.60;;;21.15;;
62268;SDS011;56517;51.634;5.566;2023-12-07T02:42:03;38.08;;;21.58;;
62268;SDS011;56517;51.634;5.566;2023-12-07T02:43:24;42.90;;;21.50;;
62268;SDS011;56517;51.634;5.566;2023-12-07T02:44:46;41.22;;;22.05;;
62268;SDS011;56517;51.634;5.566;2023-12-07T02:46:07;41.80;;;23.35;;
62268;SDS011;56517;51.634;5.566;2023-12-07T02:47:27;46.40;;;23.48;;
62268;SDS011;56517;51.634;5.566;2023-12-07T02:48:48;70.95;;;24.00;;
62268;SDS011;56517;51.634;5.566;2023-12-07T02:50:09;66.50;;;23.33;;
62268;SDS011;56517;51.634;5.566;2023-12-07T02:51:30;80.60;;;24.40;;
62268;SDS011;56517;51.634;5.566;2023-12-07T02:52:51;71.32;;;23.92;;
62268;SDS011;56517;51.634;5.566;2023-12-07T02:54:12;58.13;;;22.55;;
62268;SDS011;56517;51.634;5.566;2023-12-07T02:55:33;53.75;;;23.00;;
62268;SDS011;56517;51.634;5.566;2023-12-07T02:56:54;62.53;;;22.35;;
62268;SDS011;56517;51.634;5.566;2023-12-07T02:58:15;41.22;;;20.42;;
62268;SDS011;56517;51.634;5.566;2023-12-07T02:59:36;55.17;;;21.63;;
62268;SDS011;56517;51.634;5.566;2023-12-07T03:00:57;60.30;;;23.90;;
62268;SDS011;56517;51.634;5.566;2023-12-07T03:02:17;46.65;;;22.48;;
62268;SDS011;56517;51.634;5.566;2023-12-07T03:03:38;51.97;;;21.00;;
62268;SDS011;56517;51.634;5.566;2023-12-07T03:05:01;50.50;;;22.02;;
62268;SDS011;56517;51.634;5.566;2023-12-07T03:06:22;72.72;;;23.70;;
62268;SDS011;56517;51.634;5.566;2023-12-07T03:07:43;45.88;;;21.23;;
62268;SDS011;56517;51.634;5.566;2023-12-07T03:09:04;47.55;;;21.80;;
62268;SDS011;56517;51.634;5.566;2023-12-07T03:10:25;56.28;;;21.80;;
62268;SDS011;56517;51.634;5.566;2023-12-07T03:11:46;52.03;;;22.98;;
62268;SDS011;56517;51.634;5.566;2023-12-07T03:13:07;60.00;;;22.83;;
62268;SDS011;56517;51.634;5.566;2023-12-07T03:14:28;71.13;;;25.75;;
62268;SDS011;56517;51.634;5.566;2023-12-07T03:15:49;69.60;;;24.17;;
62268;SDS011;56517;51.634;5.566;2023-12-07T03:17:10;69.38;;;23.77;;
62268;SDS011;56517;51.634;5.566;2023-12-07T03:18:31;85.68;;;25.40;;
62268;SDS011;56517;51.634;5.566;2023-12-07T03:19:51;106.90;;;27.45;;
62268;SDS011;56517;51.634;5.566;2023-12-07T03:21:12;84.18;;;24.75;;
62268;SDS011;56517;51.634;5.566;2023-12-07T03:22:33;88.60;;;27.60;;
62268;SDS011;56517;51.634;5.566;2023-12-07T03:23:55;85.13;;;23.87;;
62268;SDS011;56517;51.634;5.566;2023-12-07T03:25:15;85.50;;;28.33;;
62268;SDS011;56517;51.634;5.566;2023-12-07T03:26:37;100.10;;;27.77;;
62268;SDS011;56517;51.634;5.566;2023-12-07T03:27:58;132.45;;;28.60;;
62268;SDS011;56517;51.634;5.566;2023-12-07T03:29:18;110.50;;;25.83;;
62268;SDS011;56517;51.634;5.566;2023-12-07T03:30:39;131.38;;;29.48;;
62268;SDS011;56517;51.634;5.566;2023-12-07T03:32:00;133.55;;;30.15;;
62268;SDS011;56517;51.634;5.566;2023-12-07T03:33:21;101.55;;;28.10;;
62268;SDS011;56517;51.634;5.566;2023-12-07T03:34:42;109.32;;;26.38;;
62268;SDS011;56517;51.634;5.566;2023-12-07T03:36:03;142.20;;;36.00;;
62268;SDS011;56517;51.634;5.566;2023-12-07T03:37:24;95.78;;;30.77;;
62268;SDS011;56517;51.634;5.566;2023-12-07T03:38:45;112.25;;;27.50;;
62268;SDS011;56517;51.634;5.566;2023-12-07T03:40:06;99.07;;;27.10;;
62268;SDS011;56517;51.634;5.566;2023-12-07T03:41:27;157.73;;;31.00;;
62268;SDS011;56517;51.634;5.566;2023-12-07T03:42:48;87.68;;;24.83;;
62268;SDS011;56517;51.634;5.566;2023-12-07T03:44:09;85.68;;;27.10;;
62268;SDS011;56517;51.634;5.566;2023-12-07T03:45:30;118.93;;;32.97;;
62268;SDS011;56517;51.634;5.566;2023-12-07T03:46:51;150.65;;;31.77;;
62268;SDS011;56517;51.634;5.566;2023-12-07T03:48:12;101.13;;;27.27;;
62268;SDS011;56517;51.634;5.566;2023-12-07T03:49:33;101.35;;;27.08;;
62268;SDS011;56517;51.634;5.566;2023-12-07T03:50:54;86.65;;;24.83;;
62268;SDS011;56517;51.634;5.566;2023-12-07T03:52:14;120.50;;;28.88;;
62268;SDS011;56517;51.634;5.566;2023-12-07T03:53:35;119.70;;;27.52;;
62268;SDS011;56517;51.634;5.566;2023-12-07T03:54:56;83.57;;;26.08;;
62268;SDS011;56517;51.634;5.566;2023-12-07T03:56:27;74.43;;;24.65;;
62268;SDS011;56517;51.634;5.566;2023-12-07T03:57:48;78.25;;;27.70;;
62268;SDS011;56517;51.634;5.566;2023-12-07T03:59:09;101.45;;;26.27;;
62268;SDS011;56517;51.634;5.566;2023-12-07T04:00:31;126.35;;;30.90;;
62268;SDS011;56517;51.634;5.566;2023-12-07T04:01:53;105.80;;;27.10;;
62268;SDS011;56517;51.634;5.566;2023-12-07T04:03:13;109.60;;;24.75;;
62268;SDS011;56517;51.634;5.566;2023-12-07T04:04:34;67.40;;;23.58;;
62268;SDS011;56517;51.634;5.566;2023-12-07T04:05:55;89.72;;;26.50;;
62268;SDS011;56517;51.634;5.566;2023-12-07T04:07:16;84.90;;;27.67;;
62268;SDS011;56517;51.634;5.566;2023-12-07T04:08:37;89.63;;;27.17;;
62268;SDS011;56517;51.634;5.566;2023-12-07T04:10:01;109.05;;;25.35;;
62268;SDS011;56517;51.634;5.566;2023-12-07T04:11:32;79.40;;;24.73;;
62268;SDS011;56517;51.634;5.566;2023-12-07T04:12:56;52.22;;;23.33;;
62268;SDS011;56517;51.634;5.566;2023-12-07T04:14:17;63.53;;;23.27;;
62268;SDS011;56517;51.634;5.566;2023-12-07T04:15:38;74.90;;;23.92;;
62268;SDS011;56517;51.634;5.566;2023-12-07T04:16:59;108.05;;;24.02;;
62268;SDS011;56517;51.634;5.566;2023-12-07T04:18:20;68.00;;;24.38;;
62268;SDS011;56517;51.634;5.566;2023-12-07T04:19:41;92.28;;;28.35;;
62268;SDS011;56517;51.634;5.566;2023-12-07T04:21:02;78.60;;;26.75;;
62268;SDS011;56517;51.634;5.566;2023-12-07T04:22:23;82.63;;;26.88;;
62268;SDS011;56517;51.634;5.566;2023-12-07T04:23:44;78.85;;;22.95;;
62268;SDS011;56517;51.634;5.566;2023-12-07T04:25:05;90.00;;;24.92;;
62268;SDS011;56517;51.634;5.566;2023-12-07T04:26:26;64.53;;;21.13;;
62268;SDS011;56517;51.634;5.566;2023-12-07T04:27:48;69.80;;;27.40;;
62268;SDS011;56517;51.634;5.566;2023-12-07T04:29:08;77.32;;;24.10;;
62268;SDS011;56517;51.634;5.566;2023-12-07T04:30:29;93.03;;;26.10;;
62268;SDS011;56517;51.634;5.566;2023-12-07T04:31:50;66.43;;;24.40;;
62268;SDS011;56517;51.634;5.566;2023-12-07T04:33:11;72.65;;;29.00;;
62268;SDS011;56517;51.634;5.566;2023-12-07T04:34:32;55.30;;;22.88;;
62268;SDS011;56517;51.634;5.566;2023-12-07T04:35:53;64.10;;;21.10;;
62268;SDS011;56517;51.634;5.566;2023-12-07T04:37:14;91.40;;;28.17;;
62268;SDS011;56517;51.634;5.566;2023-12-07T04:38:35;90.47;;;27.08;;
62268;SDS011;56517;51.634;5.566;2023-12-07T04:39:56;66.13;;;24.70;;
62268;SDS011;56517;51.634;5.566;2023-12-07T04:41:17;79.28;;;27.13;;
62268;SDS011;56517;51.634;5.566;2023-12-07T04:42:38;111.15;;;29.77;;
62268;SDS011;56517;51.634;5.566;2023-12-07T04:43:59;105.57;;;28.65;;
62268;SDS011;56517;51.634;5.566;2023-12-07T04:45:20;87.97;;;24.92;;
62268;SDS011;56517;51.634;5.566;2023-12-07T04:46:41;83.55;;;28.50;;
62268;SDS011;56517;51.634;5.566;2023-12-07T04:48:02;95.40;;;27.33;;
62268;SDS011;56517;51.634;5.566;2023-12-07T04:49:24;79.38;;;25.50;;
62268;SDS011;56517;51.634;5.566;2023-12-07T04:50:45;89.15;;;29.02;;
62268;SDS011;56517;51.634;5.566;2023-12-07T04:52:06;118.30;;;25.30;;
62268;SDS011;56517;51.634;5.566;2023-12-07T04:53:27;140.60;;;33.17;;
62268;SDS011;56517;51.634;5.566;2023-12-07T04:54:48;124.30;;;30.63;;
62268;SDS011;56517;51.634;5.566;2023-12-07T04:56:10;73.77;;;25.37;;
62268;SDS011;56517;51.634;5.566;2023-12-07T04:57:30;80.68;;;26.13;;
62268;SDS011;56517;51.634;5.566;2023-12-07T04:58:51;100.55;;;27.38;;
62268;SDS011;56517;51.634;5.566;2023-12-07T05:00:12;86.93;;;29.00;;
62268;SDS011;56517;51.634;5.566;2023-12-07T05:01:37;74.70;;;26.92;;
62268;SDS011;56517;51.634;5.566;2023-12-07T05:02:58;69.07;;;23.92;;
62268;SDS011;56517;51.634;5.566;2023-12-07T05:04:19;93.50;;;25.70;;
62268;SDS011;56517;51.634;5.566;2023-12-07T05:05:40;109.97;;;28.70;;
62268;SDS011;56517;51.634;5.566;2023-12-07T05:07:01;104.60;;;32.30;;
62268;SDS011;56517;51.634;5.566;2023-12-07T05:08:24;82.00;;;29.17;;
62268;SDS011;56517;51.634;5.566;2023-12-07T05:09:45;68.82;;;24.23;;
62268;SDS011;56517;51.634;5.566;2023-12-07T05:11:06;119.00;;;26.23;;
62268;SDS011;56517;51.634;5.566;2023-12-07T05:12:27;120.18;;;30.67;;
62268;SDS011;56517;51.634;5.566;2023-12-07T05:13:48;78.85;;;24.05;;
62268;SDS011;56517;51.634;5.566;2023-12-07T05:15:09;94.28;;;28.63;;
62268;SDS011;56517;51.634;5.566;2023-12-07T05:16:30;127.05;;;30.02;;
62268;SDS011;56517;51.634;5.566;2023-12-07T05:17:51;79.65;;;23.48;;
62268;SDS011;56517;51.634;5.566;2023-12-07T05:19:12;124.50;;;26.48;;
62268;SDS011;56517;51.634;5.566;2023-12-07T05:20:33;117.35;;;24.90;;
62268;SDS011;56517;51.634;5.566;2023-12-07T05:21:54;93.28;;;24.77;;
62268;SDS011;56517;51.634;5.566;2023-12-07T05:23:15;91.05;;;22.77;;
62268;SDS011;56517;51.634;5.566;2023-12-07T05:24:36;120.30;;;27.58;;
62268;SDS011;56517;51.634;5.566;2023-12-07T05:25:57;111.53;;;28.35;;
62268;SDS011;56517;51.634;5.566;2023-12-07T05:27:18;104.60;;;29.63;;
62268;SDS011;56517;51.634;5.566;2023-12-07T05:28:39;107.85;;;25.45;;
62268;SDS011;56517;51.634;5.566;2023-12-07T05:30:00;89.57;;;22.90;;
62268;SDS011;56517;51.634;5.566;2023-12-07T05:31:22;101.18;;;25.77;;
62268;SDS011;56517;51.634;5.566;2023-12-07T05:32:43;75.68;;;22.70;;
62268;SDS011;56517;51.634;5.566;2023-12-07T05:34:03;101.15;;;24.83;;
62268;SDS011;56517;51.634;5.566;2023-12-07T05:35:24;66.28;;;22.75;;
62268;SDS011;56517;51.634;5.566;2023-12-07T05:36:45;85.90;;;27.10;;
62268;SDS011;56517;51.634;5.566;2023-12-07T05:38:07;90.13;;;25.35;;
62268;SDS011;56517;51.634;5.566;2023-12-07T05:39:27;98.57;;;26.48;;
62268;SDS011;56517;51.634;5.566;2023-12-07T05:40:48;104.65;;;24.00;;
62268;SDS011;56517;51.634;5.566;2023-12-07T05:42:09;113.47;;;25.48;;
62268;SDS011;56517;51.634;5.566;2023-12-07T05:43:30;92.55;;;23.05;;
62268;SDS011;56517;51.634;5.566;2023-12-07T05:44:51;83.35;;;22.95;;
62268;SDS011;56517;51.634;5.566;2023-12-07T05:46:12;108.53;;;26.55;;
62268;SDS011;56517;51.634;5.566;2023-12-07T05:47:33;125.63;;;27.00;;
62268;SDS011;56517;51.634;5.566;2023-12-07T05:48:55;154.32;;;25.65;;
62268;SDS011;56517;51.634;5.566;2023-12-07T05:50:16;83.68;;;24.95;;
62268;SDS011;56517;51.634;5.566;2023-12-07T05:51:36;110.85;;;23.17;;
62268;SDS011;56517;51.634;5.566;2023-12-07T05:52:57;78.47;;;20.88;;
62268;SDS011;56517;51.634;5.566;2023-12-07T05:54:20;131.15;;;23.00;;
62268;SDS011;56517;51.634;5.566;2023-12-07T05:55:44;121.30;;;22.42;;
62268;SDS011;56517;51.634;5.566;2023-12-07T05:57:05;92.68;;;21.70;;
62268;SDS011;56517;51.634;5.566;2023-12-07T05:58:26;146.40;;;27.53;;
62268;SDS011;56517;51.634;5.566;2023-12-07T05:59:47;78.60;;;19.98;;
62268;SDS011;56517;51.634;5.566;2023-12-07T06:01:08;82.93;;;19.48;;
62268;SDS011;56517;51.634;5.566;2023-12-07T06:02:29;121.07;;;25.02;;
62268;SDS011;56517;51.634;5.566;2023-12-07T06:03:50;94.20;;;18.50;;
62268;SDS011;56517;51.634;5.566;2023-12-07T06:05:10;98.85;;;23.90;;
62268;SDS011;56517;51.634;5.566;2023-12-07T06:06:31;104.68;;;20.25;;
62268;SDS011;56517;51.634;5.566;2023-12-07T06:07:52;84.30;;;20.15;;
62268;SDS011;56517;51.634;5.566;2023-12-07T06:09:14;130.93;;;23.35;;
62268;SDS011;56517;51.634;5.566;2023-12-07T06:10:35;66.35;;;19.40;;
62268;SDS011;56517;51.634;5.566;2023-12-07T06:11:56;120.55;;;19.92;;
62268;SDS011;56517;51.634;5.566;2023-12-07T06:13:17;146.10;;;23.52;;
62268;SDS011;56517;51.634;5.566;2023-12-07T06:14:38;75.43;;;20.27;;
62268;SDS011;56517;51.634;5.566;2023-12-07T06:15:59;100.80;;;21.23;;
62268;SDS011;56517;51.634;5.566;2023-12-07T06:18:42;83.32;;;21.77;;
62268;SDS011;56517;51.634;5.566;2023-12-07T06:20:03;80.45;;;21.63;;
62268;SDS011;56517;51.634;5.566;2023-12-07T06:21:24;68.80;;;19.23;;
62268;SDS011;56517;51.634;5.566;2023-12-07T06:24:07;93.20;;;17.65;;
62268;SDS011;56517;51.634;5.566;2023-12-07T06:25:28;76.13;;;21.73;;
62268;SDS011;56517;51.634;5.566;2023-12-07T06:26:49;125.20;;;23.10;;
62268;SDS011;56517;51.634;5.566;2023-12-07T06:28:10;133.07;;;25.00;;
62268;SDS011;56517;51.634;5.566;2023-12-07T06:29:31;69.30;;;17.83;;
62268;SDS011;56517;51.634;5.566;2023-12-07T06:30:52;110.80;;;24.20;;
62268;SDS011;56517;51.634;5.566;2023-12-07T06:32:14;115.55;;;19.70;;
62268;SDS011;56517;51.634;5.566;2023-12-07T06:33:35;165.18;;;21.10;;
62268;SDS011;56517;51.634;5.566;2023-12-07T06:34:56;105.78;;;20.08;;
62268;SDS011;56517;51.634;5.566;2023-12-07T06:36:20;82.63;;;18.58;;
62268;SDS011;56517;51.634;5.566;2023-12-07T06:37:41;58.63;;;18.75;;
62268;SDS011;56517;51.634;5.566;2023-12-07T06:39:02;82.35;;;18.45;;
62268;SDS011;56517;51.634;5.566;2023-12-07T06:40:26;85.63;;;20.17;;
62268;SDS011;56517;51.634;5.566;2023-12-07T06:41:47;86.45;;;17.90;;
62268;SDS011;56517;51.634;5.566;2023-12-07T06:43:08;94.40;;;18.15;;
62268;SDS011;56517;51.634;5.566;2023-12-07T06:44:29;73.70;;;18.95;;
62268;SDS011;56517;51.634;5.566;2023-12-07T06:45:50;137.43;;;17.92;;
62268;SDS011;56517;51.634;5.566;2023-12-07T06:47:11;82.93;;;17.95;;
62268;SDS011;56517;51.634;5.566;2023-12-07T06:48:32;59.55;;;17.30;;
62268;SDS011;56517;51.634;5.566;2023-12-07T06:49:53;85.53;;;18.92;;
62268;SDS011;56517;51.634;5.566;2023-12-07T06:51:14;91.78;;;18.15;;
62268;SDS011;56517;51.634;5.566;2023-12-07T06:52:35;95.32;;;20.00;;
62268;SDS011;56517;51.634;5.566;2023-12-07T06:53:56;83.05;;;18.45;;
62268;SDS011;56517;51.634;5.566;2023-12-07T06:55:17;91.10;;;18.50;;
62268;SDS011;56517;51.634;5.566;2023-12-07T06:56:38;51.10;;;15.75;;
62268;SDS011;56517;51.634;5.566;2023-12-07T06:57:59;118.88;;;18.60;;
62268;SDS011;56517;51.634;5.566;2023-12-07T06:59:20;69.45;;;17.88;;
62268;SDS011;56517;51.634;5.566;2023-12-07T07:00:40;76.65;;;16.95;;
62268;SDS011;56517;51.634;5.566;2023-12-07T07:02:01;102.90;;;20.40;;
62268;SDS011;56517;51.634;5.566;2023-12-07T07:03:22;100.45;;;18.60;;
62268;SDS011;56517;51.634;5.566;2023-12-07T07:06:06;114.10;;;20.63;;
62268;SDS011;56517;51.634;5.566;2023-12-07T07:07:27;128.40;;;18.88;;
62268;SDS011;56517;51.634;5.566;2023-12-07T07:08:50;98.97;;;17.17;;
62268;SDS011;56517;51.634;5.566;2023-12-07T07:10:11;58.63;;;15.80;;
62268;SDS011;56517;51.634;5.566;2023-12-07T07:11:32;48.20;;;17.05;;
62268;SDS011;56517;51.634;5.566;2023-12-07T07:12:54;67.20;;;17.65;;
62268;SDS011;56517;51.634;5.566;2023-12-07T07:14:15;85.95;;;19.95;;
62268;SDS011;56517;51.634;5.566;2023-12-07T07:15:36;78.03;;;18.30;;
62268;SDS011;56517;51.634;5.566;2023-12-07T07:16:57;60.72;;;16.55;;
62268;SDS011;56517;51.634;5.566;2023-12-07T07:18:18;96.28;;;18.83;;
62268;SDS011;56517;51.634;5.566;2023-12-07T07:19:39;61.03;;;16.73;;
62268;SDS011;56517;51.634;5.566;2023-12-07T07:21:00;47.85;;;15.10;;
62268;SDS011;56517;51.634;5.566;2023-12-07T07:22:21;73.35;;;17.77;;
62268;SDS011;56517;51.634;5.566;2023-12-07T07:23:42;112.90;;;19.05;;
62268;SDS011;56517;51.634;5.566;2023-12-07T07:25:03;39.88;;;16.33;;
62268;SDS011;56517;51.634;5.566;2023-12-07T07:26:23;76.78;;;20.42;;
62268;SDS011;56517;51.634;5.566;2023-12-07T07:27:45;85.43;;;18.30;;
62268;SDS011;56517;51.634;5.566;2023-12-07T07:29:06;105.82;;;21.67;;
62268;SDS011;56517;51.634;5.566;2023-12-07T07:30:27;70.03;;;18.70;;
62268;SDS011;56517;51.634;5.566;2023-12-07T07:31:48;65.50;;;18.17;;
62268;SDS011;56517;51.634;5.566;2023-12-07T07:33:09;48.17;;;15.07;;
62268;SDS011;56517;51.634;5.566;2023-12-07T07:34:30;68.18;;;16.00;;
62268;SDS011;56517;51.634;5.566;2023-12-07T07:35:51;58.38;;;16.95;;
62268;SDS011;56517;51.634;5.566;2023-12-07T07:37:12;95.72;;;18.90;;
62268;SDS011;56517;51.634;5.566;2023-12-07T07:38:32;97.20;;;19.88;;
62268;SDS011;56517;51.634;5.566;2023-12-07T07:39:53;85.30;;;20.23;;
62268;SDS011;56517;51.634;5.566;2023-12-07T07:41:14;103.50;;;19.33;;
62268;SDS011;56517;51.634;5.566;2023-12-07T07:42:35;102.07;;;20.15;;
62268;SDS011;56517;51.634;5.566;2023-12-07T07:43:56;75.55;;;16.67;;
62268;SDS011;56517;51.634;5.566;2023-12-07T07:45:17;111.10;;;21.75;;
62268;SDS011;56517;51.634;5.566;2023-12-07T07:46:40;73.82;;;16.98;;
62268;SDS011;56517;51.634;5.566;2023-12-07T07:48:01;103.00;;;18.48;;
62268;SDS011;56517;51.634;5.566;2023-12-07T07:49:21;65.90;;;17.05;;
62268;SDS011;56517;51.634;5.566;2023-12-07T07:50:42;88.72;;;19.63;;
62268;SDS011;56517;51.634;5.566;2023-12-07T07:52:03;76.68;;;17.20;;
62268;SDS011;56517;51.634;5.566;2023-12-07T07:53:25;65.60;;;17.67;;
62268;SDS011;56517;51.634;5.566;2023-12-07T07:54:46;94.00;;;17.05;;
62268;SDS011;56517;51.634;5.566;2023-12-07T07:56:07;56.90;;;16.27;;
62268;SDS011;56517;51.634;5.566;2023-12-07T07:57:29;66.00;;;18.27;;
62268;SDS011;56517;51.634;5.566;2023-12-07T07:58:51;54.08;;;16.77;;
62268;SDS011;56517;51.634;5.566;2023-12-07T08:00:12;63.60;;;18.45;;